sensor_id;sensor_type;location;lat;lon;timestamp;temperature;humidity
7192;DHT22;3637;51.494;11.958;2023-11-25T00:00:16;2.20;99.90
7192;DHT22;3637;51.494;11.958;2023-11-25T00:03:22;2.10;99.90
7192;DHT22;3637;51.494;11.958;2023-11-25T00:06:24;2.20;99.90
7192;DHT22;3637;51.494;11.958;2023-11-25T00:09:25;2.40;99.90
7192;DHT22;3637;51.494;11.958;2023-11-25T00:12:27;2.40;99.90
7192;DHT22;3637;51.494;11.958;2023-11-25T00:15:30;2.40;99.90
7192;DHT22;3637;51.494;11.958;2023-11-25T00:18:32;3.30;99.90
7192;DHT22;3637;51.494;11.958;2023-11-25T00:21:34;2.50;99.90
7192;DHT22;3637;51.494;11.958;2023-11-25T00:24:36;2.60;99.90
7192;DHT22;3637;51.494;11.958;2023-11-25T00:27:38;2.70;99.90
7192;DHT22;3637;51.494;11.958;2023-11-25T00:30:41;2.70;99.90
7192;DHT22;3637;51.494;11.958;2023-11-25T00:33:43;2.60;99.90
7192;DHT22;3637;51.494;11.958;2023-11-25T00:36:44;2.50;99.90
7192;DHT22;3637;51.494;11.958;2023-11-25T00:39:47;2.50;99.90
7192;DHT22;3637;51.494;11.958;2023-11-25T00:42:49;2.50;99.90
7192;DHT22;3637;51.494;11.958;2023-11-25T00:45:53;2.50;99.90
7192;DHT22;3637;51.494;11.958;2023-11-25T00:48:54;2.50;99.90
7192;DHT22;3637;51.494;11.958;2023-11-25T00:51:56;2.50;99.90
7192;DHT22;3637;51.494;11.958;2023-11-25T00:54:58;3.80;99.90
7192;DHT22;3637;51.494;11.958;2023-11-25T00:58:00;2.50;99.90
7192;DHT22;3637;51.494;11.958;2023-11-25T01:01:05;2.40;99.90
7192;DHT22;3637;51.494;11.958;2023-11-25T01:04:07;2.40;99.90
7192;DHT22;3637;51.494;11.958;2023-11-25T01:07:09;2.40;99.90
7192;DHT22;3637;51.494;11.958;2023-11-25T01:10:11;2.40;99.90
7192;DHT22;3637;51.494;11.958;2023-11-25T01:13:13;2.40;99.90
7192;DHT22;3637;51.494;11.958;2023-11-25T01:16:16;2.40;99.90
7192;DHT22;3637;51.494;11.958;2023-11-25T01:19:19;2.40;99.90
7192;DHT22;3637;51.494;11.958;2023-11-25T01:22:21;2.30;99.90
7192;DHT22;3637;51.494;11.958;2023-11-25T01:25:23;2.30;99.90
7192;DHT22;3637;51.494;11.958;2023-11-25T01:28:25;2.40;99.90
7192;DHT22;3637;51.494;11.958;2023-11-25T01:31:28;2.40;99.90
7192;DHT22;3637;51.494;11.958;2023-11-25T01:34:30;2.40;99.90
7192;DHT22;3637;51.494;11.958;2023-11-25T01:37:32;2.40;99.90
7192;DHT22;3637;51.494;11.958;2023-11-25T01:40:34;2.30;99.90
7192;DHT22;3637;51.494;11.958;2023-11-25T01:43:37;2.30;99.90
7192;DHT22;3637;51.494;11.958;2023-11-25T01:46:41;2.30;99.90
7192;DHT22;3637;51.494;11.958;2023-11-25T01:49:43;2.30;99.90
7192;DHT22;3637;51.494;11.958;2023-11-25T01:52:46;2.30;99.90
7192;DHT22;3637;51.494;11.958;2023-11-25T01:55:51;2.30;99.90
7192;DHT22;3637;51.494;11.958;2023-11-25T01:58:55;2.20;99.90
7192;DHT22;3637;51.494;11.958;2023-11-25T02:02:00;2.20;99.90
7192;DHT22;3637;51.494;11.958;2023-11-25T02:05:02;2.20;99.90
7192;DHT22;3637;51.494;11.958;2023-11-25T02:08:04;2.20;99.90
7192;DHT22;3637;51.494;11.958;2023-11-25T02:11:07;2.20;99.90
7192;DHT22;3637;51.494;11.958;2023-11-25T02:14:09;2.20;99.90
7192;DHT22;3637;51.494;11.958;2023-11-25T02:17:12;2.20;99.90
7192;DHT22;3637;51.494;11.958;2023-11-25T02:20:29;2.20;99.90
7192;DHT22;3637;51.494;11.958;2023-11-25T02:23:32;2.20;99.90
7192;DHT22;3637;51.494;11.958;2023-11-25T02:26:34;2.20;99.90
7192;DHT22;3637;51.494;11.958;2023-11-25T02:29:36;2.20;99.90
7192;DHT22;3637;51.494;11.958;2023-11-25T02:32:38;2.10;99.90
7192;DHT22;3637;51.494;11.958;2023-11-25T02:35:39;2.00;99.90
7192;DHT22;3637;51.494;11.958;2023-11-25T02:38:45;1.90;99.90
7192;DHT22;3637;51.494;11.958;2023-11-25T02:41:47;1.50;99.90
7192;DHT22;3637;51.494;11.958;2023-11-25T02:44:50;1.70;99.90
7192;DHT22;3637;51.494;11.958;2023-11-25T02:47:52;1.70;99.90
7192;DHT22;3637;51.494;11.958;2023-11-25T02:50:54;1.60;99.90
7192;DHT22;3637;51.494;11.958;2023-11-25T02:53:57;2.20;99.90
7192;DHT22;3637;51.494;11.958;2023-11-25T02:56:59;1.80;99.90
7192;DHT22;3637;51.494;11.958;2023-11-25T03:00:01;1.90;99.90
7192;DHT22;3637;51.494;11.958;2023-11-25T03:03:11;1.30;99.90
7192;DHT22;3637;51.494;11.958;2023-11-25T03:06:17;1.80;99.90
7192;DHT22;3637;51.494;11.958;2023-11-25T03:09:24;1.30;99.90
7192;DHT22;3637;51.494;11.958;2023-11-25T03:12:26;1.20;99.90
7192;DHT22;3637;51.494;11.958;2023-11-25T03:15:27;1.20;99.90
7192;DHT22;3637;51.494;11.958;2023-11-25T03:18:29;1.10;99.90
7192;DHT22;3637;51.494;11.958;2023-11-25T03:21:31;1.10;99.90
7192;DHT22;3637;51.494;11.958;2023-11-25T03:24:36;1.10;99.90
7192;DHT22;3637;51.494;11.958;2023-11-25T03:27:38;1.00;99.90
7192;DHT22;3637;51.494;11.958;2023-11-25T03:30:40;1.00;99.90
7192;DHT22;3637;51.494;11.958;2023-11-25T03:33:42;1.00;99.90
7192;DHT22;3637;51.494;11.958;2023-11-25T03:36:44;0.90;99.90
7192;DHT22;3637;51.494;11.958;2023-11-25T03:39:47;0.90;99.90
7192;DHT22;3637;51.494;11.958;2023-11-25T03:42:51;0.90;99.90
7192;DHT22;3637;51.494;11.958;2023-11-25T03:45:54;0.90;99.90
7192;DHT22;3637;51.494;11.958;2023-11-25T03:48:56;1.00;99.90
7192;DHT22;3637;51.494;11.958;2023-11-25T03:51:57;1.00;99.90
7192;DHT22;3637;51.494;11.958;2023-11-25T03:55:01;1.00;99.90
7192;DHT22;3637;51.494;11.958;2023-11-25T03:58:03;1.00;99.90
7192;DHT22;3637;51.494;11.958;2023-11-25T04:01:06;1.00;99.90
7192;DHT22;3637;51.494;11.958;2023-11-25T04:04:07;1.00;99.90
7192;DHT22;3637;51.494;11.958;2023-11-25T04:07:09;1.00;99.90
7192;DHT22;3637;51.494;11.958;2023-11-25T04:10:13;1.00;99.90
7192;DHT22;3637;51.494;11.958;2023-11-25T04:13:16;1.00;99.90
7192;DHT22;3637;51.494;11.958;2023-11-25T04:16:17;1.00;99.90
7192;DHT22;3637;51.494;11.958;2023-11-25T04:19:19;0.90;99.90
7192;DHT22;3637;51.494;11.958;2023-11-25T04:22:21;0.90;99.90
7192;DHT22;3637;51.494;11.958;2023-11-25T04:25:26;0.90;99.90
7192;DHT22;3637;51.494;11.958;2023-11-25T04:28:29;0.80;99.90
7192;DHT22;3637;51.494;11.958;2023-11-25T04:31:30;0.90;99.90
7192;DHT22;3637;51.494;11.958;2023-11-25T04:34:32;0.90;99.90
7192;DHT22;3637;51.494;11.958;2023-11-25T04:37:35;0.90;99.90
7192;DHT22;3637;51.494;11.958;2023-11-25T04:40:39;0.80;99.90
7192;DHT22;3637;51.494;11.958;2023-11-25T04:43:40;0.90;99.90
7192;DHT22;3637;51.494;11.958;2023-11-25T04:46:43;0.80;99.90
7192;DHT22;3637;51.494;11.958;2023-11-25T04:49:46;0.80;99.90
7192;DHT22;3637;51.494;11.958;2023-11-25T04:52:48;0.80;99.90
7192;DHT22;3637;51.494;11.958;2023-11-25T04:55:51;0.80;99.90
7192;DHT22;3637;51.494;11.958;2023-11-25T04:58:53;1.20;99.90
7192;DHT22;3637;51.494;11.958;2023-11-25T05:01:55;0.80;99.90
7192;DHT22;3637;51.494;11.958;2023-11-25T05:04:56;0.80;99.90
7192;DHT22;3637;51.494;11.958;2023-11-25T05:07:58;0.80;99.90
7192;DHT22;3637;51.494;11.958;2023-11-25T05:11:02;0.80;99.90
7192;DHT22;3637;51.494;11.958;2023-11-25T05:14:04;0.80;99.90
7192;DHT22;3637;51.494;11.958;2023-11-25T05:17:05;0.80;99.90
7192;DHT22;3637;51.494;11.958;2023-11-25T05:20:08;0.90;99.90
7192;DHT22;3637;51.494;11.958;2023-11-25T05:23:16;0.90;99.90
7192;DHT22;3637;51.494;11.958;2023-11-25T05:26:19;1.00;99.90
7192;DHT22;3637;51.494;11.958;2023-11-25T05:29:21;1.00;99.90
7192;DHT22;3637;51.494;11.958;2023-11-25T05:32:23;1.10;99.90
7192;DHT22;3637;51.494;11.958;2023-11-25T05:35:25;1.20;99.90
7192;DHT22;3637;51.494;11.958;2023-11-25T05:38:27;1.20;99.90
7192;DHT22;3637;51.494;11.958;2023-11-25T05:41:31;1.30;99.90
7192;DHT22;3637;51.494;11.958;2023-11-25T05:44:33;1.30;99.90
7192;DHT22;3637;51.494;11.958;2023-11-25T05:47:35;1.10;99.90
7192;DHT22;3637;51.494;11.958;2023-11-25T05:50:40;1.30;99.90
7192;DHT22;3637;51.494;11.958;2023-11-25T05:53:42;1.30;99.90
7192;DHT22;3637;51.494;11.958;2023-11-25T05:56:46;1.20;99.90
7192;DHT22;3637;51.494;11.958;2023-11-25T05:59:49;1.20;99.90
7192;DHT22;3637;51.494;11.958;2023-11-25T06:02:51;2.50;99.90
7192;DHT22;3637;51.494;11.958;2023-11-25T06:05:53;1.20;99.90
7192;DHT22;3637;51.494;11.958;2023-11-25T06:08:55;1.30;99.90
7192;DHT22;3637;51.494;11.958;2023-11-25T06:11:58;1.30;99.90
7192;DHT22;3637;51.494;11.958;2023-11-25T06:15:00;1.40;99.90
7192;DHT22;3637;51.494;11.958;2023-11-25T06:18:02;1.30;99.90
7192;DHT22;3637;51.494;11.958;2023-11-25T06:21:04;1.90;99.90
7192;DHT22;3637;51.494;11.958;2023-11-25T06:24:07;1.40;99.90
7192;DHT22;3637;51.494;11.958;2023-11-25T06:27:10;1.40;99.90
7192;DHT22;3637;51.494;11.958;2023-11-25T06:30:12;1.50;99.90
7192;DHT22;3637;51.494;11.958;2023-11-25T06:33:14;1.50;99.90
7192;DHT22;3637;51.494;11.958;2023-11-25T06:36:16;1.60;99.90
7192;DHT22;3637;51.494;11.958;2023-11-25T06:39:18;1.40;99.90
7192;DHT22;3637;51.494;11.958;2023-11-25T06:42:24;1.40;99.90
7192;DHT22;3637;51.494;11.958;2023-11-25T06:45:26;1.40;99.90
7192;DHT22;3637;51.494;11.958;2023-11-25T06:48:28;1.40;99.90
7192;DHT22;3637;51.494;11.958;2023-11-25T06:51:30;2.20;99.90
7192;DHT22;3637;51.494;11.958;2023-11-25T06:54:32;1.50;99.90
7192;DHT22;3637;51.494;11.958;2023-11-25T06:57:36;1.50;99.90
7192;DHT22;3637;51.494;11.958;2023-11-25T07:00:39;1.50;99.90
7192;DHT22;3637;51.494;11.958;2023-11-25T07:03:42;1.40;99.90
7192;DHT22;3637;51.494;11.958;2023-11-25T07:06:43;1.40;99.90
7192;DHT22;3637;51.494;11.958;2023-11-25T07:09:45;1.40;99.90
7192;DHT22;3637;51.494;11.958;2023-11-25T07:12:48;1.40;99.90
7192;DHT22;3637;51.494;11.958;2023-11-25T07:15:51;1.40;99.90
7192;DHT22;3637;51.494;11.958;2023-11-25T07:18:53;1.40;99.90
7192;DHT22;3637;51.494;11.958;2023-11-25T07:21:55;1.50;99.90
7192;DHT22;3637;51.494;11.958;2023-11-25T07:24:57;1.50;99.90
7192;DHT22;3637;51.494;11.958;2023-11-25T07:28:00;1.60;99.90
7192;DHT22;3637;51.494;11.958;2023-11-25T07:31:04;1.50;99.90
7192;DHT22;3637;51.494;11.958;2023-11-25T07:34:06;1.50;99.90
7192;DHT22;3637;51.494;11.958;2023-11-25T07:37:09;2.60;99.90
7192;DHT22;3637;51.494;11.958;2023-11-25T07:40:12;1.60;99.90
7192;DHT22;3637;51.494;11.958;2023-11-25T07:43:16;1.70;99.90
7192;DHT22;3637;51.494;11.958;2023-11-25T07:46:18;2.60;99.90
7192;DHT22;3637;51.494;11.958;2023-11-25T07:49:19;2.60;99.90
7192;DHT22;3637;51.494;11.958;2023-11-25T07:52:21;2.00;99.90
7192;DHT22;3637;51.494;11.958;2023-11-25T07:55:24;2.10;99.90
7192;DHT22;3637;51.494;11.958;2023-11-25T07:58:27;2.10;99.90
7192;DHT22;3637;51.494;11.958;2023-11-25T08:01:29;2.10;99.90
7192;DHT22;3637;51.494;11.958;2023-11-25T08:04:32;2.00;99.90
7192;DHT22;3637;51.494;11.958;2023-11-25T08:07:34;2.10;99.90
7192;DHT22;3637;51.494;11.958;2023-11-25T08:10:36;2.70;99.90
7192;DHT22;3637;51.494;11.958;2023-11-25T08:13:39;2.30;99.90
7192;DHT22;3637;51.494;11.958;2023-11-25T08:16:41;2.40;99.90
7192;DHT22;3637;51.494;11.958;2023-11-25T08:19:43;2.60;99.90
7192;DHT22;3637;51.494;11.958;2023-11-25T08:22:45;2.70;99.90
7192;DHT22;3637;51.494;11.958;2023-11-25T08:25:47;2.80;99.90
7192;DHT22;3637;51.494;11.958;2023-11-25T08:28:53;3.10;99.90
7192;DHT22;3637;51.494;11.958;2023-11-25T08:31:55;3.40;99.90
7192;DHT22;3637;51.494;11.958;2023-11-25T08:34:56;3.40;99.90
7192;DHT22;3637;51.494;11.958;2023-11-25T08:38:00;5.40;99.90
7192;DHT22;3637;51.494;11.958;2023-11-25T08:41:03;2.90;99.90
7192;DHT22;3637;51.494;11.958;2023-11-25T08:44:08;3.80;99.90
7192;DHT22;3637;51.494;11.958;2023-11-25T08:47:13;3.20;99.90
7192;DHT22;3637;51.494;11.958;2023-11-25T08:50:15;3.30;99.90
7192;DHT22;3637;51.494;11.958;2023-11-25T08:53:16;3.60;99.90
7192;DHT22;3637;51.494;11.958;2023-11-25T08:56:18;4.00;99.90
7192;DHT22;3637;51.494;11.958;2023-11-25T08:59:23;3.60;99.90
7192;DHT22;3637;51.494;11.958;2023-11-25T09:02:25;4.10;99.90
7192;DHT22;3637;51.494;11.958;2023-11-25T09:05:27;3.10;99.90
7192;DHT22;3637;51.494;11.958;2023-11-25T09:08:29;3.50;99.90
7192;DHT22;3637;51.494;11.958;2023-11-25T09:11:31;3.50;99.90
7192;DHT22;3637;51.494;11.958;2023-11-25T09:15:01;3.90;99.90
7192;DHT22;3637;51.494;11.958;2023-11-25T09:21:56;3.10;99.90
7192;DHT22;3637;51.494;11.958;2023-11-25T09:28:46;2.80;99.90
7192;DHT22;3637;51.494;11.958;2023-11-25T09:32:04;3.10;99.90
7192;DHT22;3637;51.494;11.958;2023-11-25T09:35:18;3.10;99.90
7192;DHT22;3637;51.494;11.958;2023-11-25T09:38:35;3.70;99.90
7192;DHT22;3637;51.494;11.958;2023-11-25T09:42:14;3.30;99.90
7192;DHT22;3637;51.494;11.958;2023-11-25T09:45:26;3.10;99.90
7192;DHT22;3637;51.494;11.958;2023-11-25T09:48:56;3.20;99.90
7192;DHT22;3637;51.494;11.958;2023-11-25T09:52:10;3.80;99.90
7192;DHT22;3637;51.494;11.958;2023-11-25T09:55:15;4.00;99.90
7192;DHT22;3637;51.494;11.958;2023-11-25T09:58:26;3.30;99.90
7192;DHT22;3637;51.494;11.958;2023-11-25T10:01:51;4.00;99.90
7192;DHT22;3637;51.494;11.958;2023-11-25T10:04:57;3.80;99.90
7192;DHT22;3637;51.494;11.958;2023-11-25T10:08:03;3.70;99.90
7192;DHT22;3637;51.494;11.958;2023-11-25T10:11:13;3.20;99.90
7192;DHT22;3637;51.494;11.958;2023-11-25T10:18:00;4.10;99.90
7192;DHT22;3637;51.494;11.958;2023-11-25T10:21:04;3.50;99.90
7192;DHT22;3637;51.494;11.958;2023-11-25T10:24:07;3.40;99.90
7192;DHT22;3637;51.494;11.958;2023-11-25T10:27:09;3.60;99.90
7192;DHT22;3637;51.494;11.958;2023-11-25T10:30:14;3.70;99.90
7192;DHT22;3637;51.494;11.958;2023-11-25T10:33:16;4.40;99.90
7192;DHT22;3637;51.494;11.958;2023-11-25T10:36:20;4.20;99.90
7192;DHT22;3637;51.494;11.958;2023-11-25T10:39:22;5.10;99.90
7192;DHT22;3637;51.494;11.958;2023-11-25T10:42:24;3.90;99.90
7192;DHT22;3637;51.494;11.958;2023-11-25T10:45:26;3.90;99.90
7192;DHT22;3637;51.494;11.958;2023-11-25T10:48:29;3.90;99.90
7192;DHT22;3637;51.494;11.958;2023-11-25T10:51:32;4.00;99.90
7192;DHT22;3637;51.494;11.958;2023-11-25T10:54:35;4.10;99.90
7192;DHT22;3637;51.494;11.958;2023-11-25T10:57:37;4.00;99.90
7192;DHT22;3637;51.494;11.958;2023-11-25T11:00:43;3.90;99.90
7192;DHT22;3637;51.494;11.958;2023-11-25T11:03:53;4.20;99.90
7192;DHT22;3637;51.494;11.958;2023-11-25T11:07:03;3.90;99.90
7192;DHT22;3637;51.494;11.958;2023-11-25T11:10:07;3.70;99.90
7192;DHT22;3637;51.494;11.958;2023-11-25T11:13:12;3.60;99.90
7192;DHT22;3637;51.494;11.958;2023-11-25T11:16:22;4.10;99.90
7192;DHT22;3637;51.494;11.958;2023-11-25T11:19:34;3.70;99.90
7192;DHT22;3637;51.494;11.958;2023-11-25T11:22:39;4.20;99.90
7192;DHT22;3637;51.494;11.958;2023-11-25T11:25:48;3.60;99.90
7192;DHT22;3637;51.494;11.958;2023-11-25T11:29:05;4.00;99.90
7192;DHT22;3637;51.494;11.958;2023-11-25T11:32:13;2.60;99.90
7192;DHT22;3637;51.494;11.958;2023-11-25T11:35:34;3.30;99.90
7192;DHT22;3637;51.494;11.958;2023-11-25T11:38:43;3.30;99.90
7192;DHT22;3637;51.494;11.958;2023-11-25T11:41:48;3.50;99.90
7192;DHT22;3637;51.494;11.958;2023-11-25T11:44:58;3.40;99.90
7192;DHT22;3637;51.494;11.958;2023-11-25T11:48:15;3.30;99.90
7192;DHT22;3637;51.494;11.958;2023-11-25T11:51:17;3.80;99.90
7192;DHT22;3637;51.494;11.958;2023-11-25T11:54:26;4.30;99.90
7192;DHT22;3637;51.494;11.958;2023-11-25T11:57:28;3.50;99.90
7192;DHT22;3637;51.494;11.958;2023-11-25T12:00:30;3.40;99.90
7192;DHT22;3637;51.494;11.958;2023-11-25T12:03:37;3.50;99.90
7192;DHT22;3637;51.494;11.958;2023-11-25T12:06:39;3.90;99.90
7192;DHT22;3637;51.494;11.958;2023-11-25T12:09:42;3.60;99.90
7192;DHT22;3637;51.494;11.958;2023-11-25T12:12:44;4.00;99.90
7192;DHT22;3637;51.494;11.958;2023-11-25T12:15:46;3.60;99.90
7192;DHT22;3637;51.494;11.958;2023-11-25T12:18:48;3.70;99.90
7192;DHT22;3637;51.494;11.958;2023-11-25T12:21:50;3.60;99.90
7192;DHT22;3637;51.494;11.958;2023-11-25T12:24:54;3.80;99.90
7192;DHT22;3637;51.494;11.958;2023-11-25T12:28:03;4.70;99.90
7192;DHT22;3637;51.494;11.958;2023-11-25T12:31:08;3.80;99.90
7192;DHT22;3637;51.494;11.958;2023-11-25T12:34:10;4.30;99.90
7192;DHT22;3637;51.494;11.958;2023-11-25T12:37:13;3.10;99.90
7192;DHT22;3637;51.494;11.958;2023-11-25T12:40:18;4.20;99.90
7192;DHT22;3637;51.494;11.958;2023-11-25T12:43:22;3.90;99.90
7192;DHT22;3637;51.494;11.958;2023-11-25T12:46:24;3.90;99.90
7192;DHT22;3637;51.494;11.958;2023-11-25T12:49:26;3.90;99.90
7192;DHT22;3637;51.494;11.958;2023-11-25T12:52:30;4.60;99.90
7192;DHT22;3637;51.494;11.958;2023-11-25T12:55:40;4.00;99.90
7192;DHT22;3637;51.494;11.958;2023-11-25T12:58:43;5.00;99.90
7192;DHT22;3637;51.494;11.958;2023-11-25T13:01:47;4.20;99.90
7192;DHT22;3637;51.494;11.958;2023-11-25T13:04:49;4.70;99.90
7192;DHT22;3637;51.494;11.958;2023-11-25T13:07:52;4.60;99.90
7192;DHT22;3637;51.494;11.958;2023-11-25T13:10:58;4.40;99.90
7192;DHT22;3637;51.494;11.958;2023-11-25T13:14:00;4.20;99.90
7192;DHT22;3637;51.494;11.958;2023-11-25T13:17:03;4.20;99.90
7192;DHT22;3637;51.494;11.958;2023-11-25T13:20:07;4.20;99.90
7192;DHT22;3637;51.494;11.958;2023-11-25T13:23:11;4.10;99.90
7192;DHT22;3637;51.494;11.958;2023-11-25T13:26:14;4.10;99.90
7192;DHT22;3637;51.494;11.958;2023-11-25T13:29:16;4.10;99.90
7192;DHT22;3637;51.494;11.958;2023-11-25T13:32:18;4.20;99.90
7192;DHT22;3637;51.494;11.958;2023-11-25T13:35:20;4.10;99.90
7192;DHT22;3637;51.494;11.958;2023-11-25T13:39:27;4.10;99.90
7192;DHT22;3637;51.494;11.958;2023-11-25T13:42:03;4.10;99.90
7192;DHT22;3637;51.494;11.958;2023-11-25T13:45:06;4.10;99.90
7192;DHT22;3637;51.494;11.958;2023-11-25T13:48:10;4.10;99.90
7192;DHT22;3637;51.494;11.958;2023-11-25T13:51:15;4.10;99.90
7192;DHT22;3637;51.494;11.958;2023-11-25T13:54:17;4.10;99.90
7192;DHT22;3637;51.494;11.958;2023-11-25T13:57:20;4.10;99.90
7192;DHT22;3637;51.494;11.958;2023-11-25T14:00:22;4.00;99.90
7192;DHT22;3637;51.494;11.958;2023-11-25T14:03:25;3.90;99.90
7192;DHT22;3637;51.494;11.958;2023-11-25T14:06:27;4.60;99.90
7192;DHT22;3637;51.494;11.958;2023-11-25T14:09:31;4.60;99.90
7192;DHT22;3637;51.494;11.958;2023-11-25T14:12:34;4.20;99.90
7192;DHT22;3637;51.494;11.958;2023-11-25T14:15:36;4.40;99.90
7192;DHT22;3637;51.494;11.958;2023-11-25T14:18:38;3.80;99.90
7192;DHT22;3637;51.494;11.958;2023-11-25T14:21:40;3.90;99.90
7192;DHT22;3637;51.494;11.958;2023-11-25T14:24:42;3.90;99.90
7192;DHT22;3637;51.494;11.958;2023-11-25T14:27:47;3.80;99.90
7192;DHT22;3637;51.494;11.958;2023-11-25T14:30:49;3.80;99.90
7192;DHT22;3637;51.494;11.958;2023-11-25T14:33:51;5.10;99.90
7192;DHT22;3637;51.494;11.958;2023-11-25T14:36:53;4.20;99.90
7192;DHT22;3637;51.494;11.958;2023-11-25T14:39:55;4.00;99.90
7192;DHT22;3637;51.494;11.958;2023-11-25T14:42:58;3.90;99.90
7192;DHT22;3637;51.494;11.958;2023-11-25T14:46:00;3.90;99.90
7192;DHT22;3637;51.494;11.958;2023-11-25T14:49:02;3.80;99.90
7192;DHT22;3637;51.494;11.958;2023-11-25T14:52:05;3.70;99.90
7192;DHT22;3637;51.494;11.958;2023-11-25T14:55:08;4.10;99.90
7192;DHT22;3637;51.494;11.958;2023-11-25T14:58:14;3.70;99.90
7192;DHT22;3637;51.494;11.958;2023-11-25T15:01:16;4.20;99.90
7192;DHT22;3637;51.494;11.958;2023-11-25T15:04:18;3.70;99.90
7192;DHT22;3637;51.494;11.958;2023-11-25T15:07:19;3.70;99.90
7192;DHT22;3637;51.494;11.958;2023-11-25T15:10:21;3.80;99.90
7192;DHT22;3637;51.494;11.958;2023-11-25T15:13:27;4.90;99.90
7192;DHT22;3637;51.494;11.958;2023-11-25T15:16:29;3.90;99.90
7192;DHT22;3637;51.494;11.958;2023-11-25T15:19:30;3.80;99.90
7192;DHT22;3637;51.494;11.958;2023-11-25T15:22:32;3.70;99.90
7192;DHT22;3637;51.494;11.958;2023-11-25T15:25:34;3.80;99.90
7192;DHT22;3637;51.494;11.958;2023-11-25T15:28:38;3.90;99.90
7192;DHT22;3637;51.494;11.958;2023-11-25T15:31:41;4.30;99.90
7192;DHT22;3637;51.494;11.958;2023-11-25T15:34:44;4.00;99.90
7192;DHT22;3637;51.494;11.958;2023-11-25T15:37:46;4.20;99.90
7192;DHT22;3637;51.494;11.958;2023-11-25T15:40:48;4.20;99.90
7192;DHT22;3637;51.494;11.958;2023-11-25T15:43:51;4.30;99.90
7192;DHT22;3637;51.494;11.958;2023-11-25T15:46:56;4.00;99.90
7192;DHT22;3637;51.494;11.958;2023-11-25T15:50:01;4.30;99.90
7192;DHT22;3637;51.494;11.958;2023-11-25T15:53:04;3.90;99.90
7192;DHT22;3637;51.494;11.958;2023-11-25T15:56:08;4.00;99.90
7192;DHT22;3637;51.494;11.958;2023-11-25T15:59:14;4.50;99.90
7192;DHT22;3637;51.494;11.958;2023-11-25T16:02:19;4.20;99.90
7192;DHT22;3637;51.494;11.958;2023-11-25T16:05:22;3.60;99.90
7192;DHT22;3637;51.494;11.958;2023-11-25T16:08:24;3.90;99.90
7192;DHT22;3637;51.494;11.958;2023-11-25T16:11:27;3.90;99.90
7192;DHT22;3637;51.494;11.958;2023-11-25T16:14:39;4.50;99.90
7192;DHT22;3637;51.494;11.958;2023-11-25T16:18:13;3.80;99.90
7192;DHT22;3637;51.494;11.958;2023-11-25T16:21:58;3.80;99.90
7192;DHT22;3637;51.494;11.958;2023-11-25T16:25:23;3.80;99.90
7192;DHT22;3637;51.494;11.958;2023-11-25T16:28:27;3.80;99.90
7192;DHT22;3637;51.494;11.958;2023-11-25T16:31:35;4.10;99.90
7192;DHT22;3637;51.494;11.958;2023-11-25T16:34:40;4.10;99.90
7192;DHT22;3637;51.494;11.958;2023-11-25T16:37:44;3.90;99.90
7192;DHT22;3637;51.494;11.958;2023-11-25T16:40:46;3.50;99.90
7192;DHT22;3637;51.494;11.958;2023-11-25T16:43:48;5.20;99.90
7192;DHT22;3637;51.494;11.958;2023-11-25T16:46:52;3.40;99.90
7192;DHT22;3637;51.494;11.958;2023-11-25T16:49:56;4.00;99.90
7192;DHT22;3637;51.494;11.958;2023-11-25T16:53:00;3.80;99.90
7192;DHT22;3637;51.494;11.958;2023-11-25T16:56:02;3.70;99.90
7192;DHT22;3637;51.494;11.958;2023-11-25T16:59:04;3.60;99.90
7192;DHT22;3637;51.494;11.958;2023-11-25T17:02:07;3.50;99.90
7192;DHT22;3637;51.494;11.958;2023-11-25T17:05:10;3.50;99.90
7192;DHT22;3637;51.494;11.958;2023-11-25T17:08:15;3.40;99.90
7192;DHT22;3637;51.494;11.958;2023-11-25T17:11:29;3.60;99.90
7192;DHT22;3637;51.494;11.958;2023-11-25T17:14:31;4.10;99.90
7192;DHT22;3637;51.494;11.958;2023-11-25T17:17:35;3.10;99.90
7192;DHT22;3637;51.494;11.958;2023-11-25T17:20:42;3.10;99.90
7192;DHT22;3637;51.494;11.958;2023-11-25T17:23:44;4.40;99.90
7192;DHT22;3637;51.494;11.958;2023-11-25T17:45:43;2.80;99.90
7192;DHT22;3637;51.494;11.958;2023-11-25T17:48:47;2.70;99.90
7192;DHT22;3637;51.494;11.958;2023-11-25T17:51:50;3.10;99.90
7192;DHT22;3637;51.494;11.958;2023-11-25T17:54:52;2.90;99.90
7192;DHT22;3637;51.494;11.958;2023-11-25T17:57:56;2.90;99.90
7192;DHT22;3637;51.494;11.958;2023-11-25T18:01:02;2.50;99.90
7192;DHT22;3637;51.494;11.958;2023-11-25T18:04:09;2.90;99.90
7192;DHT22;3637;51.494;11.958;2023-11-25T18:07:16;2.60;99.90
7192;DHT22;3637;51.494;11.958;2023-11-25T18:10:23;2.70;99.90
7192;DHT22;3637;51.494;11.958;2023-11-25T18:13:28;3.00;99.90
7192;DHT22;3637;51.494;11.958;2023-11-25T18:16:39;2.90;99.90
7192;DHT22;3637;51.494;11.958;2023-11-25T18:19:41;3.70;99.90
7192;DHT22;3637;51.494;11.958;2023-11-25T18:22:47;2.80;99.90
7192;DHT22;3637;51.494;11.958;2023-11-25T18:25:49;2.90;99.90
7192;DHT22;3637;51.494;11.958;2023-11-25T18:28:55;3.70;99.90
7192;DHT22;3637;51.494;11.958;2023-11-25T18:31:59;3.00;99.90
7192;DHT22;3637;51.494;11.958;2023-11-25T18:35:12;3.90;99.90
7192;DHT22;3637;51.494;11.958;2023-11-25T18:38:15;3.10;99.90
7192;DHT22;3637;51.494;11.958;2023-11-25T18:41:23;3.20;99.90
7192;DHT22;3637;51.494;11.958;2023-11-25T18:44:29;3.20;99.90
7192;DHT22;3637;51.494;11.958;2023-11-25T18:47:38;3.30;99.90
7192;DHT22;3637;51.494;11.958;2023-11-25T18:50:42;3.40;99.90
7192;DHT22;3637;51.494;11.958;2023-11-25T18:53:44;3.30;99.90
7192;DHT22;3637;51.494;11.958;2023-11-25T18:56:46;3.20;99.90
7192;DHT22;3637;51.494;11.958;2023-11-25T18:59:47;3.20;99.90
7192;DHT22;3637;51.494;11.958;2023-11-25T19:02:51;3.20;99.90
7192;DHT22;3637;51.494;11.958;2023-11-25T19:05:53;3.40;99.90
7192;DHT22;3637;51.494;11.958;2023-11-25T19:08:55;3.00;99.90
7192;DHT22;3637;51.494;11.958;2023-11-25T19:11:57;4.30;99.90
7192;DHT22;3637;51.494;11.958;2023-11-25T19:14:59;3.10;99.90
7192;DHT22;3637;51.494;11.958;2023-11-25T19:18:02;3.00;99.90
7192;DHT22;3637;51.494;11.958;2023-11-25T19:21:08;2.90;99.90
7192;DHT22;3637;51.494;11.958;2023-11-25T19:24:11;3.00;99.90
7192;DHT22;3637;51.494;11.958;2023-11-25T19:27:13;2.70;99.90
7192;DHT22;3637;51.494;11.958;2023-11-25T19:30:15;2.70;99.90
7192;DHT22;3637;51.494;11.958;2023-11-25T19:33:26;2.70;99.90
7192;DHT22;3637;51.494;11.958;2023-11-25T19:36:31;2.00;99.90
7192;DHT22;3637;51.494;11.958;2023-11-25T19:39:33;2.60;99.90
7192;DHT22;3637;51.494;11.958;2023-11-25T19:42:36;3.10;99.90
7192;DHT22;3637;51.494;11.958;2023-11-25T19:45:40;2.50;99.90
7192;DHT22;3637;51.494;11.958;2023-11-25T19:48:44;2.80;99.90
7192;DHT22;3637;51.494;11.958;2023-11-25T19:51:46;4.10;99.90
7192;DHT22;3637;51.494;11.958;2023-11-25T19:55:00;2.80;99.90
7192;DHT22;3637;51.494;11.958;2023-11-25T19:58:04;3.00;99.90
7192;DHT22;3637;51.494;11.958;2023-11-25T20:01:07;3.80;99.90
7192;DHT22;3637;51.494;11.958;2023-11-25T20:04:11;3.30;99.90
7192;DHT22;3637;51.494;11.958;2023-11-25T20:07:13;3.10;99.90
7192;DHT22;3637;51.494;11.958;2023-11-25T20:10:15;3.90;99.90
7192;DHT22;3637;51.494;11.958;2023-11-25T20:13:22;3.20;99.90
7192;DHT22;3637;51.494;11.958;2023-11-25T20:16:26;3.30;99.90
7192;DHT22;3637;51.494;11.958;2023-11-25T20:19:39;3.30;99.90
7192;DHT22;3637;51.494;11.958;2023-11-25T20:22:43;3.10;99.90
7192;DHT22;3637;51.494;11.958;2023-11-25T20:25:45;3.00;99.90
7192;DHT22;3637;51.494;11.958;2023-11-25T20:28:48;4.60;99.90
7192;DHT22;3637;51.494;11.958;2023-11-25T20:31:50;3.20;99.90